George Allen — WDF9749 — position and weather

sailwx.info

Track history (hours):
 
Tides and Currents Weather Stations Pressure Air Temp Water Temp Dewpoint Dewpoint Depression Visibility Wind Speed Wind Dir Waves Ship Positions

George Allen

Owner: Blessey Enterprises, Inc., Harahan, LA. More information available from US FCC via Universal Licensing System and Coast Guard Vessel Documentation Center.

Last reported at 2014-Nov-21 14:24 UTC. Time now 2014-Nov-23 03:39 UTC.
Position N 29°24' W 094°45'.

Length 25 m.

Type: Towing. MMSI: 367508440.

Date/timePositionNaut miles runAvg speedWind from/ knotsBaromVisibWave heightAir tempDewpointWater temp
2014-Nov-21 14:24N 29°24' W 094°45'  
2014-Nov-14 18:09N 29°38' W 091°20'3 5.6
2014-Nov-14 17:33N 29°39' W 091°16'5 5.0
2014-Nov-14 16:33N 29°41' W 091°11'3 3.4
2014-Nov-14 15:33N 29°39' W 091°07'27 3.8
2014-Nov-14 08:33N 29°35' W 090°37'4 4.3
2014-Nov-14 07:33N 29°34' W 090°32'28 3.0
2014-Nov-13 22:05N 29°48' W 090°04'8 4.2
2014-Nov-13 20:18N 29°54' W 089°59'1 1.6
2014-Nov-13 19:32N 29°55' W 089°58'5 0.1
2014-Nov-11 17:33N 29°57' W 090°03'3 1.0
2014-Nov-11 14:29N 29°56' W 090°00'  
Track history (hours):
 
Tides and Currents Weather Stations Pressure Air Temp Water Temp Dewpoint Dewpoint Depression Visibility Wind Speed Wind Dir Waves Ship Positions

George Allen

Owner: Blessey Enterprises, Inc., Harahan, LA. More information available from US FCC via Universal Licensing System and Coast Guard Vessel Documentation Center.

Last reported at 2014-Nov-21 14:24 UTC. Time now 2014-Nov-23 03:39 UTC.
Position N 29°24' W 094°45'.

Length 25 m.

Type: Towing. MMSI: 367508440.

Date/timePositionNaut miles runAvg speedWind from/ knotsBaromVisibWave heightAir tempDewpointWater temp
2014-Nov-21 14:24N 29°24' W 094°45'  
2014-Nov-14 18:09N 29°38' W 091°20'3 5.6
2014-Nov-14 17:33N 29°39' W 091°16'5 5.0
2014-Nov-14 16:33N 29°41' W 091°11'3 3.4
2014-Nov-14 15:33N 29°39' W 091°07'27 3.8
2014-Nov-14 08:33N 29°35' W 090°37'4 4.3
2014-Nov-14 07:33N 29°34' W 090°32'28 3.0
2014-Nov-13 22:05N 29°48' W 090°04'8 4.2
2014-Nov-13 20:18N 29°54' W 089°59'1 1.6
2014-Nov-13 19:32N 29°55' W 089°58'5 0.1
2014-Nov-11 17:33N 29°57' W 090°03'3 1.0
2014-Nov-11 14:29N 29°56' W 090°00'  

Dump ship's entire track history